Time;durP1;ratioP1;P1;durP2;ratioP2;P2;SDS_P1;SDS_P2;PMS_P1;PMS_P2;Temp;Humidity;BMP_temperature;BMP_pressure;BME280_temperature;BME280_humidity;BME280_pressure;Samples;Min_cycle;Max_cycle;Signal;HPM_P1;HPM_P2
2022/07/19 00:02:23;;;;;;;11.43;6.38;;;17.80;99.90;;;;;;4958623;28;20549;-90
2022/07/19 00:04:50;;;;;;;8.50;5.53;;;17.70;99.90;;;;;;4958148;28;20429;-91
2022/07/19 00:07:16;;;;;;;8.43;5.60;;;17.70;99.90;;;;;;4955489;28;20146;-90
2022/07/19 00:09:41;;;;;;;11.90;6.85;;;17.70;99.90;;;;;;4971282;28;20137;-90
2022/07/19 00:12:07;;;;;;;9.95;6.28;;;17.60;99.90;;;;;;4971399;28;20047;-90
2022/07/19 00:14:40;;;;;;;10.70;6.50;;;17.60;99.90;;;;;;4971424;28;20081;-90
2022/07/19 00:17:06;;;;;;;12.50;6.88;;;17.70;99.90;;;;;;4971307;28;20483;-89
2022/07/19 00:19:32;;;;;;;12.65;7.07;;;17.60;99.90;;;;;;4955611;28;20090;-90
2022/07/19 00:21:58;;;;;;;9.75;6.95;;;17.60;99.90;;;;;;4970859;28;20527;-89
2022/07/19 00:24:23;;;;;;;11.38;5.35;;;17.60;99.90;;;;;;4968652;28;20151;-89
2022/07/19 00:26:49;;;;;;;10.68;6.68;;;17.60;99.90;;;;;;4936102;29;20058;-89
2022/07/19 00:29:15;;;;;;;13.77;6.43;;;17.50;99.90;;;;;;4920163;29;20036;-90
2022/07/19 00:31:41;;;;;;;9.43;6.05;;;17.50;99.90;;;;;;4951984;29;20138;-89
2022/07/19 00:34:06;;;;;;;12.48;7.00;;;17.40;99.90;;;;;;4951703;29;20058;-89
2022/07/19 00:36:32;;;;;;;12.30;7.50;;;17.40;99.90;;;;;;4951772;29;20043;-90
2022/07/19 00:38:58;;;;;;;10.75;7.20;;;17.40;99.90;;;;;;4952134;29;20198;-90
2022/07/19 00:41:24;;;;;;;11.88;6.68;;;17.40;99.90;;;;;;4951661;29;20098;-90
2022/07/19 00:43:51;;;;;;;11.50;7.47;;;17.40;99.90;;;;;;4935895;29;20062;-90
2022/07/19 00:46:19;;;;;;;12.73;7.40;;;17.40;99.90;;;;;;4951350;29;20051;-91
2022/07/19 00:48:45;;;;;;;14.73;7.60;;;17.30;99.90;;;;;;4952003;29;20051;-91
2022/07/19 00:51:16;;;;;;;10.00;7.07;;;17.30;99.90;;;;;;4951619;29;20043;-90
2022/07/19 00:53:42;;;;;;;11.50;6.70;;;17.30;99.90;;;;;;4952391;29;20043;-90
2022/07/19 00:56:10;;;;;;;9.88;6.57;;;17.20;99.90;;;;;;4935809;29;20448;-91
2022/07/19 00:58:37;;;;;;;13.68;6.60;;;17.20;99.90;;;;;;4951977;29;20047;-91
2022/07/19 01:01:05;;;;;;;10.77;6.55;;;17.20;99.90;;;;;;4951032;29;20044;-91
2022/07/19 01:03:34;;;;;;;10.80;7.13;;;17.10;99.90;;;;;;4936042;29;20097;-90
2022/07/19 01:06:00;;;;;;;12.57;6.95;;;17.10;99.90;;;;;;4951508;29;20187;-90
2022/07/19 01:08:26;;;;;;;11.40;7.57;;;17.10;99.90;;;;;;4951767;29;20523;-90
2022/07/19 01:10:52;;;;;;;9.35;7.28;;;17.10;99.90;;;;;;4951890;29;20147;-90
2022/07/19 01:13:18;;;;;;;13.85;7.00;;;17.10;99.90;;;;;;4951101;28;20039;-89
2022/07/19 01:15:44;;;;;;;13.95;7.53;;;17.00;99.90;;;;;;4954429;29;20444;-90
2022/07/19 01:18:10;;;;;;;9.77;7.30;;;17.00;99.90;;;;;;4954808;29;20047;-90
2022/07/19 01:20:36;;;;;;;13.20;7.40;;;16.90;99.90;;;;;;4955009;29;20098;-90
2022/07/19 01:23:02;;;;;;;13.55;7.85;;;16.90;99.90;;;;;;4955030;29;20078;-90
2022/07/19 01:25:30;;;;;;;12.95;8.10;;;16.90;99.90;;;;;;4965480;28;20051;-89
2022/07/19 01:27:57;;;;;;;13.98;8.43;;;16.90;99.90;;;;;;4974398;28;20055;-89
2022/07/19 01:30:25;;;;;;;10.80;8.00;;;16.90;99.90;;;;;;4957660;28;20093;-89
2022/07/19 01:32:52;;;;;;;10.85;7.88;;;16.90;99.90;;;;;;4958081;28;20450;-90
2022/07/19 01:35:19;;;;;;;11.32;7.85;;;16.90;99.90;;;;;;4957296;28;20454;-90
2022/07/19 01:37:45;;;;;;;11.90;7.68;;;16.90;99.90;;;;;;4942135;28;20050;-88
2022/07/19 01:40:13;;;;;;;10.57;6.80;;;16.80;99.90;;;;;;4942046;28;20042;-89
2022/07/19 01:42:39;;;;;;;10.73;7.82;;;16.80;99.90;;;;;;4942100;28;20050;-90
2022/07/19 01:45:06;;;;;;;11.43;7.75;;;16.80;99.90;;;;;;4941513;28;20074;-90
2022/07/19 01:47:33;;;;;;;12.10;8.00;;;16.70;99.90;;;;;;4941558;28;20129;-90
2022/07/19 01:49:59;;;;;;;13.60;8.18;;;16.70;99.90;;;;;;4941686;28;20150;-90
2022/07/19 01:52:24;;;;;;;17.52;8.43;;;16.70;99.90;;;;;;4941301;28;20252;-90
2022/07/19 01:54:50;;;;;;;14.27;8.60;;;16.70;99.90;;;;;;4941906;28;20470;-90
2022/07/19 01:57:16;;;;;;;11.02;8.32;;;16.70;99.90;;;;;;4942035;28;20054;-90
2022/07/19 01:59:42;;;;;;;17.95;8.00;;;16.70;99.90;;;;;;4941172;28;20034;-90
2022/07/19 02:02:07;;;;;;;11.65;8.30;;;16.70;99.90;;;;;;4941268;28;20057;-90
2022/07/19 02:04:33;;;;;;;11.48;7.82;;;16.70;99.90;;;;;;4941346;28;20075;-90
2022/07/19 02:06:59;;;;;;;13.80;8.70;;;16.70;99.90;;;;;;4950296;28;20061;-89
2022/07/19 02:09:25;;;;;;;11.50;8.40;;;16.80;99.90;;;;;;4960354;28;20082;-90
2022/07/19 02:11:51;;;;;;;12.00;8.00;;;16.70;99.90;;;;;;4960220;28;20153;-90
2022/07/19 02:14:17;;;;;;;9.93;5.65;;;16.70;99.90;;;;;;4960648;28;20046;-90
2022/07/19 02:16:43;;;;;;;17.70;8.77;;;16.70;99.90;;;;;;4960166;28;20171;-89
2022/07/19 02:19:09;;;;;;;14.82;8.38;;;16.70;99.90;;;;;;4960527;28;20406;-89
2022/07/19 02:21:35;;;;;;;13.00;8.27;;;16.70;99.90;;;;;;4960495;28;20045;-90
2022/07/19 02:24:02;;;;;;;13.48;8.00;;;16.70;99.90;;;;;;4960262;28;20043;-90
2022/07/19 02:26:27;;;;;;;14.80;8.35;;;16.70;99.90;;;;;;4959609;28;20054;-89
2022/07/19 02:28:53;;;;;;;12.43;8.70;;;16.70;99.90;;;;;;4960004;28;20038;-90
2022/07/19 02:31:19;;;;;;;15.75;8.07;;;16.70;99.90;;;;;;4960540;28;20050;-90
2022/07/19 02:33:45;;;;;;;13.05;8.70;;;16.70;99.90;;;;;;4960163;28;20042;-89
2022/07/19 02:36:11;;;;;;;10.70;8.13;;;16.70;99.90;;;;;;4959773;28;20039;-91
2022/07/19 02:38:37;;;;;;;11.27;7.95;;;16.70;99.90;;;;;;4960638;28;20046;-91
2022/07/19 02:41:03;;;;;;;11.88;8.02;;;16.70;99.90;;;;;;4959796;28;20042;-90
2022/07/19 02:43:29;;;;;;;11.90;8.25;;;16.60;99.90;;;;;;4960485;28;20494;-90
2022/07/19 02:45:55;;;;;;;11.35;8.13;;;16.60;99.90;;;;;;4959617;28;20042;-89
2022/07/19 02:48:21;;;;;;;11.10;7.45;;;16.60;99.90;;;;;;4959706;28;20046;-89
2022/07/19 02:50:46;;;;;;;12.02;7.60;;;16.60;99.90;;;;;;4959869;28;20061;-90
2022/07/19 02:53:13;;;;;;;10.10;7.47;;;16.50;99.90;;;;;;4959768;28;20134;-89
2022/07/19 02:55:38;;;;;;;12.27;7.80;;;16.50;99.90;;;;;;4959899;28;20054;-91
2022/07/19 02:58:04;;;;;;;11.82;7.82;;;16.40;99.90;;;;;;4959546;28;20053;-90
2022/07/19 03:00:30;;;;;;;13.65;7.47;;;16.40;99.90;;;;;;4959737;28;20057;-90
2022/07/19 03:03:43;;;;;;;12.80;7.57;;;16.40;99.90;;;;;;4959749;28;20046;-90
2022/07/19 03:05:45;;;;;;;9.70;6.72;;;16.40;99.90;;;;;;4975748;28;20116;-90
2022/07/19 03:08:10;;;;;;;11.95;7.40;;;16.30;99.90;;;;;;4975691;28;20082;-90
2022/07/19 03:10:36;;;;;;;10.88;7.13;;;16.20;99.90;;;;;;4959758;28;20050;-90
2022/07/19 03:13:02;;;;;;;12.73;7.68;;;16.20;99.90;;;;;;4959050;28;20410;-90
2022/07/19 03:15:28;;;;;;;11.82;7.05;;;16.20;99.90;;;;;;4959371;28;20053;-90
2022/07/19 03:17:53;;;;;;;11.15;8.20;;;16.20;99.90;;;;;;4959615;28;20057;-91
2022/07/19 03:20:19;;;;;;;13.50;7.20;;;16.20;99.90;;;;;;4959123;28;20043;-90
2022/07/19 03:22:45;;;;;;;11.98;7.35;;;16.10;99.90;;;;;;4959557;28;20042;-91
2022/07/19 03:25:11;;;;;;;16.02;7.75;;;16.20;99.90;;;;;;4958371;28;20054;-90
2022/07/19 03:27:46;;;;;;;11.85;7.65;;;16.20;99.90;;;;;;4959289;28;20382;-90
2022/07/19 03:30:11;;;;;;;12.80;7.93;;;16.20;99.90;;;;;;4958704;28;20491;-90
2022/07/19 03:32:37;;;;;;;12.32;7.75;;;16.10;99.90;;;;;;4959485;28;20160;-88
2022/07/19 03:35:03;;;;;;;11.10;7.35;;;16.20;99.90;;;;;;4958381;28;20108;-89
2022/07/19 03:37:29;;;;;;;12.52;7.30;;;16.20;99.90;;;;;;4958463;28;20490;-89
2022/07/19 03:39:55;;;;;;;11.27;7.68;;;16.20;99.90;;;;;;4959285;28;20051;-90
2022/07/19 03:42:21;;;;;;;10.30;7.82;;;16.20;99.90;;;;;;4958470;28;20050;-90
2022/07/19 03:44:46;;;;;;;13.95;7.55;;;16.20;99.90;;;;;;4959071;28;20137;-90
2022/07/19 03:47:12;;;;;;;13.48;7.85;;;16.20;99.90;;;;;;4958455;28;20486;-90
2022/07/19 03:49:38;;;;;;;10.63;6.93;;;16.20;99.90;;;;;;4959270;28;20042;-89
2022/07/19 03:52:04;;;;;;;11.23;7.93;;;16.30;99.90;;;;;;4958675;28;20082;-90
2022/07/19 03:54:29;;;;;;;17.00;8.38;;;16.30;99.90;;;;;;4958581;28;20046;-89
2022/07/19 03:56:55;;;;;;;12.30;8.63;;;16.30;99.90;;;;;;4959085;28;20091;-89
2022/07/19 03:59:22;;;;;;;13.25;7.82;;;16.30;99.90;;;;;;4958367;28;20386;-89
2022/07/19 04:01:50;;;;;;;12.40;7.80;;;16.30;99.90;;;;;;4958980;28;20134;-89
2022/07/19 04:04:15;;;;;;;13.82;7.50;;;16.30;99.90;;;;;;4958748;28;20479;-90
2022/07/19 04:06:41;;;;;;;11.23;7.40;;;16.40;99.90;;;;;;4958296;28;20042;-90
2022/07/19 04:09:07;;;;;;;9.43;6.68;;;16.40;99.90;;;;;;4958729;28;20049;-92
2022/07/19 04:11:33;;;;;;;9.70;6.78;;;16.40;99.90;;;;;;4958301;28;20151;-92
2022/07/19 04:13:58;;;;;;;11.15;7.28;;;16.40;99.90;;;;;;4958593;28;20065;-88
2022/07/19 04:16:24;;;;;;;18.27;7.30;;;16.40;99.90;;;;;;4958365;28;20196;-89
2022/07/19 04:18:50;;;;;;;11.25;6.25;;;16.40;99.90;;;;;;4958596;28;20049;-88
2022/07/19 04:21:16;;;;;;;10.38;6.93;;;16.50;99.90;;;;;;4958648;28;20410;-89
2022/07/19 04:23:41;;;;;;;11.30;7.15;;;16.50;99.90;;;;;;4958651;28;20480;-89
2022/07/19 04:26:09;;;;;;;12.18;7.22;;;16.50;99.90;;;;;;4958078;28;20054;-90
2022/07/19 04:28:35;;;;;;;11.15;6.88;;;16.40;99.90;;;;;;4956462;28;20054;-90
2022/07/19 04:31:10;;;;;;;11.15;7.15;;;16.60;99.90;;;;;;4957414;28;20042;-90
2022/07/19 04:33:36;;;;;;;11.07;6.57;;;16.60;99.90;;;;;;4958418;28;20054;-90
2022/07/19 04:36:01;;;;;;;10.77;6.53;;;16.70;99.90;;;;;;4958507;28;20133;-90
2022/07/19 04:38:27;;;;;;;11.35;7.15;;;16.70;99.90;;;;;;4958676;28;20138;-90
2022/07/19 04:40:56;;;;;;;10.55;6.82;;;16.80;99.90;;;;;;4958190;28;20042;-89
2022/07/19 04:43:22;;;;;;;13.75;7.72;;;16.80;99.90;;;;;;4957963;28;20082;-88
2022/07/19 04:45:47;;;;;;;15.10;7.05;;;16.90;99.90;;;;;;4958340;28;20045;-89
2022/07/19 04:48:13;;;;;;;11.18;6.63;;;17.00;99.90;;;;;;4958658;28;20046;-90
2022/07/19 04:50:40;;;;;;;17.17;7.80;;;17.10;99.90;;;;;;4961351;28;20082;-89
2022/07/19 04:53:06;;;;;;;11.73;7.38;;;17.20;99.90;;;;;;4962155;28;20046;-88
2022/07/19 04:55:32;;;;;;;13.10;7.57;;;17.30;99.90;;;;;;4961801;28;20120;-88
2022/07/19 04:57:58;;;;;;;15.35;8.70;;;17.30;99.90;;;;;;4961843;28;20574;-87
2022/07/19 05:00:24;;;;;;;13.27;7.53;;;17.40;99.90;;;;;;4961492;28;20129;-87
2022/07/19 05:02:50;;;;;;;12.85;7.05;;;17.50;99.90;;;;;;4961425;28;20133;-88
2022/07/19 05:05:17;;;;;;;16.88;7.28;;;17.60;99.90;;;;;;4993320;28;20482;-88
2022/07/19 05:07:44;;;;;;;11.95;6.93;;;17.70;99.90;;;;;;4961310;28;20042;-88
2022/07/19 05:10:18;;;;;;;16.23;7.38;;;17.80;99.90;;;;;;4969878;28;20049;-90
2022/07/19 05:12:44;;;;;;;18.15;7.50;;;17.90;99.90;;;;;;4996371;28;20053;-91
2022/07/19 05:15:10;;;;;;;14.85;7.57;;;18.00;99.90;;;;;;4996554;28;20049;-89
2022/07/19 05:17:36;;;;;;;15.07;6.95;;;18.10;99.90;;;;;;4996737;28;20076;-90
2022/07/19 05:20:04;;;;;;;15.20;7.60;;;18.20;99.90;;;;;;4996941;28;20080;-91
2022/07/19 05:22:29;;;;;;;14.65;7.25;;;18.30;99.90;;;;;;4981027;28;20064;-90
2022/07/19 05:24:56;;;;;;;14.80;7.28;;;18.40;99.90;;;;;;4978024;28;20050;-90
2022/07/19 05:27:23;;;;;;;11.93;7.32;;;18.60;99.90;;;;;;4960460;28;20165;-91
2022/07/19 05:29:49;;;;;;;24.75;7.65;;;18.60;99.90;;;;;;4976806;28;20049;-90
2022/07/19 05:32:15;;;;;;;23.23;7.28;;;18.70;99.90;;;;;;4960433;28;20050;-91
2022/07/19 05:34:41;;;;;;;11.52;6.68;;;18.90;99.90;;;;;;4959873;28;20045;-91
2022/07/19 05:37:07;;;;;;;13.52;6.72;;;19.00;99.90;;;;;;4919433;29;20058;-91
2022/07/19 05:39:32;;;;;;;13.57;6.78;;;19.00;99.90;;;;;;4935181;28;20429;-89
2022/07/19 05:41:58;;;;;;;15.10;7.18;;;19.20;99.90;;;;;;4960432;28;20050;-91
2022/07/19 05:44:24;;;;;;;14.35;6.95;;;19.20;99.90;;;;;;4959644;28;20191;-91
2022/07/19 05:46:50;;;;;;;14.80;7.07;;;19.30;99.90;;;;;;4975960;28;20049;-91
2022/07/19 05:49:15;;;;;;;12.27;6.63;;;19.40;99.90;;;;;;4958491;28;20505;-90
2022/07/19 05:51:41;;;;;;;18.85;7.25;;;19.60;99.90;;;;;;4957537;28;20047;-91
2022/07/19 05:54:08;;;;;;;14.30;7.35;;;19.60;99.90;;;;;;4958242;28;20049;-91
2022/07/19 05:56:34;;;;;;;13.60;7.20;;;19.70;99.90;;;;;;4955032;28;20043;-90
2022/07/19 05:59:01;;;;;;;14.82;7.28;;;19.80;99.90;;;;;;4939751;28;20049;-90
2022/07/19 06:01:27;;;;;;;19.65;7.40;;;20.00;99.90;;;;;;4937983;28;20046;-89
2022/07/19 06:03:55;;;;;;;12.85;6.80;;;20.10;99.90;;;;;;4940079;28;20513;-90
2022/07/19 06:06:22;;;;;;;13.00;6.90;;;20.30;99.90;;;;;;4944962;29;20043;-89
2022/07/19 06:08:49;;;;;;;11.32;7.60;;;20.40;99.90;;;;;;4938956;28;20050;-89
2022/07/19 06:11:16;;;;;;;12.20;6.65;;;20.50;99.90;;;;;;4939976;28;20046;-90
2022/07/19 06:13:43;;;;;;;12.20;7.18;;;20.70;99.90;;;;;;4939330;28;20054;-90
2022/07/19 06:16:11;;;;;;;13.77;6.78;;;20.80;99.90;;;;;;4940026;28;20126;-88
2022/07/19 06:18:38;;;;;;;14.10;6.65;;;21.00;99.90;;;;;;4940406;28;20506;-91
2022/07/19 06:21:07;;;;;;;13.88;5.95;;;21.20;99.90;;;;;;4937835;28;20150;-90
2022/07/19 06:23:33;;;;;;;17.25;6.82;;;21.30;99.90;;;;;;4938916;28;20089;-90
2022/07/19 06:25:59;;;;;;;12.23;5.88;;;21.40;99.90;;;;;;4938632;28;20094;-90
2022/07/19 06:28:25;;;;;;;12.63;6.10;;;21.60;99.90;;;;;;4937408;28;20055;-90
2022/07/19 06:30:51;;;;;;;8.05;5.72;;;21.70;99.90;;;;;;4938866;28;20126;-92
2022/07/19 06:33:17;;;;;;;12.52;6.25;;;21.90;99.90;;;;;;4938242;28;20126;-90
2022/07/19 06:35:43;;;;;;;15.52;5.90;;;22.00;99.90;;;;;;4938643;28;20050;-89
2022/07/19 06:38:09;;;;;;;8.63;5.53;;;22.20;99.90;;;;;;4939109;28;20074;-91
2022/07/19 06:40:35;;;;;;;14.77;6.30;;;22.40;99.90;;;;;;4937616;28;20054;-91
2022/07/19 06:43:00;;;;;;;9.80;5.25;;;22.50;99.90;;;;;;4939771;28;20558;-95
2022/07/19 06:45:26;;;;;;;13.60;6.35;;;22.60;99.90;;;;;;4946731;28;20030;-96
2022/07/19 06:47:52;;;;;;;16.50;5.63;;;22.80;99.90;;;;;;4975160;28;20042;-95
2022/07/19 06:50:19;;;;;;;9.40;5.47;;;22.90;99.90;;;;;;4973757;28;20047;-96
2022/07/19 06:52:45;;;;;;;9.00;5.70;;;23.00;99.90;;;;;;4974472;28;20474;-92
2022/07/19 06:55:10;;;;;;;14.18;5.65;;;23.20;99.90;;;;;;4973269;28;20046;-94
2022/07/19 06:57:36;;;;;;;12.07;5.05;;;23.30;99.90;;;;;;4936963;28;20051;-94
2022/07/19 07:00:05;;;;;;;14.43;5.35;;;23.40;99.90;;;;;;4920230;29;20048;-94
2022/07/19 07:02:32;;;;;;;12.27;4.60;;;23.60;99.90;;;;;;4934553;29;20047;-95
2022/07/19 07:04:58;;;;;;;9.35;4.20;;;23.70;99.90;;;;;;4919836;29;20626;-96
2022/07/19 07:07:24;;;;;;;8.38;4.47;;;23.80;99.90;;;;;;4919917;29;20054;-95
2022/07/19 07:09:50;;;;;;;9.10;3.90;;;24.00;99.90;;;;;;4918752;29;20098;-95
2022/07/19 07:12:16;;;;;;;17.63;4.20;;;24.10;99.90;;;;;;4934198;29;20055;-94
2022/07/19 07:14:42;;;;;;;13.60;3.88;;;24.20;99.90;;;;;;4919013;29;20044;-95
2022/07/19 07:17:07;;;;;;;12.30;4.22;;;24.40;99.90;;;;;;4918919;29;20059;-95
2022/07/19 07:19:33;;;;;;;8.10;3.90;;;24.60;99.90;;;;;;4919650;29;20047;-95
2022/07/19 07:22:01;;;;;;;11.13;4.38;;;24.60;99.90;;;;;;4918159;29;20134;-94
2022/07/19 07:24:28;;;;;;;10.93;4.05;;;24.70;99.90;;;;;;4918343;29;20139;-96
2022/07/19 07:26:54;;;;;;;12.65;3.83;;;24.70;99.90;;;;;;4922104;28;20077;-95
2022/07/19 07:29:23;;;;;;;15.40;4.05;;;24.80;99.90;;;;;;4941970;28;20046;-96
2022/07/19 07:31:50;;;;;;;11.85;3.63;;;24.90;99.90;;;;;;4939054;28;20554;-94
2022/07/19 07:34:16;;;;;;;11.57;4.00;;;25.00;99.90;;;;;;4955721;28;20043;-93
2022/07/19 07:36:44;;;;;;;14.65;4.13;;;25.10;99.90;;;;;;4958374;28;20046;-96
2022/07/19 07:39:11;;;;;;;13.55;4.72;;;25.10;99.90;;;;;;4939771;28;20126;-93
2022/07/19 07:41:37;;;;;;;8.30;3.60;;;25.20;99.90;;;;;;4939769;28;20057;-94
2022/07/19 07:44:06;;;;;;;10.30;4.03;;;25.30;99.90;;;;;;4939323;28;20039;-93
2022/07/19 07:46:32;;;;;;;10.70;3.60;;;25.40;99.90;;;;;;4957674;28;20038;-96
2022/07/19 07:48:58;;;;;;;13.15;3.35;;;25.50;99.90;;;;;;4948106;28;20517;-95
2022/07/19 07:51:24;;;;;;;13.68;3.65;;;25.70;99.90;;;;;;4957337;28;20133;-90
2022/07/19 07:54:00;;;;;;;11.07;4.07;;;25.70;99.90;;;;;;4957098;28;20046;-89
2022/07/19 07:56:41;;;;;;;6.50;3.13;;;25.90;99.90;;;;;;4956447;28;20054;-89
2022/07/19 07:59:38;;;;;;;12.50;3.72;;;25.90;99.90;;;;;;4956906;28;20487;-89
2022/07/19 08:02:07;;;;;;;9.93;3.58;;;26.10;99.90;;;;;;4953732;28;20061;-89
2022/07/19 08:04:33;;;;;;;10.52;3.00;;;26.20;99.90;;;;;;4956524;28;20046;-90
2022/07/19 08:06:59;;;;;;;9.27;3.65;;;26.20;99.90;;;;;;4955944;28;20050;-90
2022/07/19 08:09:25;;;;;;;13.20;3.38;;;26.40;99.90;;;;;;4956590;28;20442;-90
2022/07/19 08:11:51;;;;;;;14.55;3.70;;;26.50;99.90;;;;;;4956568;28;20561;-89
2022/07/19 08:14:29;;;;;;;10.95;3.58;;;26.50;99.90;;;;;;4957158;28;20042;-89
2022/07/19 08:17:05;;;;;;;9.60;3.42;;;26.90;99.90;;;;;;4956684;28;20046;-89
2022/07/19 08:19:39;;;;;;;8.93;3.35;;;26.70;99.90;;;;;;4956211;28;20054;-89
2022/07/19 08:22:05;;;;;;;8.77;2.85;;;26.90;99.90;;;;;;4956713;28;20510;-91
2022/07/19 08:24:31;;;;;;;11.55;3.25;;;27.00;99.90;;;;;;4953297;28;20046;-92
2022/07/19 08:26:57;;;;;;;8.05;3.22;;;27.20;99.90;;;;;;4937015;28;20051;-92
2022/07/19 08:29:26;;;;;;;10.30;3.20;;;27.30;99.90;;;;;;4937494;28;20153;-90
2022/07/19 08:31:54;;;;;;;7.72;3.13;;;27.40;99.90;;;;;;4937866;28;20047;-90
2022/07/19 08:34:32;;;;;;;11.98;3.13;;;27.50;99.90;;;;;;4936851;28;20078;-91
2022/07/19 08:37:11;;;;;;;9.60;3.35;;;27.60;99.90;;;;;;4937706;28;20303;-91
2022/07/19 08:39:48;;;;;;;8.68;2.90;;;27.70;99.90;;;;;;4937333;28;20039;-90
2022/07/19 08:42:18;;;;;;;10.50;3.00;;;27.80;99.90;;;;;;4937002;28;20078;-90
2022/07/19 08:44:48;;;;;;;7.18;2.83;;;27.90;99.90;;;;;;4937385;28;20047;-90
2022/07/19 08:47:19;;;;;;;12.65;3.17;;;28.00;99.90;;;;;;4936832;28;20055;-90
2022/07/19 08:49:48;;;;;;;10.98;2.95;;;28.10;99.90;;;;;;4936948;28;20129;-90
2022/07/19 08:52:19;;;;;;;7.97;2.75;;;28.20;99.90;;;;;;4937340;28;20058;-89
2022/07/19 08:54:45;;;;;;;8.25;2.70;;;28.30;99.90;;;;;;4936682;28;20141;-90
2022/07/19 09:00:23;;;;;;;12.73;2.80;;;28.60;99.90;;;;;;4972053;28;20105;-90
2022/07/19 09:02:57;;;;;;;14.57;2.28;;;28.70;99.90;;;;;;4955562;28;20765;-90
2022/07/19 09:05:26;;;;;;;6.38;2.45;;;28.90;99.90;;;;;;4955957;28;20105;-90
2022/07/19 09:08:50;;;;;;;;;;;;;;;;;;;;;
2022/07/19 09:11:38;;;;;;;9.57;2.50;;;29.00;99.90;;;;;;4966672;28;20063;-89
2022/07/19 09:14:05;;;;;;;10.82;2.47;;;29.10;99.90;;;;;;4956186;28;20043;-90
2022/07/19 09:16:52;;;;;;;8.88;2.30;;;29.20;99.90;;;;;;4955678;28;20038;-89
2022/07/19 09:19:18;;;;;;;8.23;2.50;;;29.40;99.90;;;;;;4956427;28;20050;-89
2022/07/19 09:21:56;;;;;;;10.15;2.00;;;29.50;99.90;;;;;;4955408;28;20410;-89
2022/07/19 09:24:24;;;;;;;5.70;2.25;;;29.60;99.90;;;;;;4955499;28;20449;-91
2022/07/19 09:27:03;;;;;;;8.25;2.15;;;29.60;99.90;;;;;;4955872;28;20503;-90
2022/07/19 09:29:38;;;;;;;6.95;2.22;;;29.70;99.90;;;;;;4971467;28;20043;-90
2022/07/19 09:32:14;;;;;;;10.80;2.20;;;29.70;99.90;;;;;;4956274;28;20137;-90
2022/07/19 09:34:49;;;;;;;6.20;1.77;;;29.80;99.90;;;;;;4955353;28;20042;-90
2022/07/19 09:37:22;;;;;;;5.85;1.83;;;29.80;99.90;;;;;;4959055;28;20042;-90
2022/07/19 09:40:01;;;;;;;8.60;1.88;;;29.90;99.90;;;;;;4959322;28;20142;-90
2022/07/19 09:42:39;;;;;;;6.25;1.77;;;29.90;97.80;;;;;;4958929;28;20085;-89
2022/07/19 09:45:14;;;;;;;7.60;1.80;;;30.00;99.00;;;;;;4958413;28;20085;-90
2022/07/19 09:47:42;;;;;;;12.02;1.75;;;30.10;98.70;;;;;;4959846;28;20050;-91
2022/07/19 09:50:24;;;;;;;5.85;2.00;;;30.20;98.20;;;;;;4957875;28;20108;-89
2022/07/19 09:52:51;;;;;;;11.67;2.20;;;30.20;96.40;;;;;;4959020;28;20050;-90
2022/07/19 09:55:18;;;;;;;3.65;1.50;;;30.30;96.50;;;;;;4959442;28;20340;-90
2022/07/19 09:57:50;;;;;;;9.35;2.30;;;30.40;95.80;;;;;;4958576;28;20108;-90
2022/07/19 10:00:21;;;;;;;6.72;1.70;;;30.40;96.00;;;;;;4959411;28;20136;-91
2022/07/19 10:03:01;;;;;;;7.88;1.70;;;30.60;95.00;;;;;;4959332;28;20460;-90
2022/07/19 10:05:33;;;;;;;5.65;1.73;;;30.60;94.40;;;;;;4957514;28;20100;-91
2022/07/19 10:07:59;;;;;;;4.40;1.50;;;30.70;94.20;;;;;;4959317;28;20054;-90
2022/07/19 10:10:30;;;;;;;8.40;1.83;;;30.80;93.60;;;;;;4957918;28;20724;-91
2022/07/19 10:12:57;;;;;;;11.75;1.80;;;30.90;92.50;;;;;;4958466;28;20112;-90
2022/07/19 10:15:24;;;;;;;5.95;1.60;;;31.00;91.70;;;;;;4957684;28;20053;-91
2022/07/19 10:18:22;;;;;;;6.20;1.90;;;31.00;90.50;;;;;;4959026;28;20065;-90
2022/07/19 10:20:51;;;;;;;5.50;1.30;;;31.10;90.80;;;;;;4958160;28;20105;-91
2022/07/19 10:23:31;;;;;;;6.72;1.70;;;31.20;90.00;;;;;;4956284;28;20117;-91
2022/07/19 10:25:57;;;;;;;4.38;1.20;;;31.30;87.60;;;;;;4956348;28;20134;-91
2022/07/19 10:28:30;;;;;;;5.03;1.55;;;31.30;85.60;;;;;;4939550;28;20410;-91
2022/07/19 10:31:30;;;;;;;3.45;1.20;;;31.40;82.80;;;;;;4956510;28;20062;-91
2022/07/19 10:34:22;;;;;;;6.13;1.30;;;31.50;83.80;;;;;;4939507;28;20209;-91
2022/07/19 10:36:52;;;;;;;5.43;1.45;;;31.60;81.50;;;;;;4931517;28;20061;-91
2022/07/19 10:39:34;;;;;;;;;;;;;;;;;;;;;
2022/07/19 10:42:27;;;;;;;8.23;2.05;;;31.90;82.60;;;;;;4954851;28;20059;-91
2022/07/19 10:45:12;;;;;;;7.28;1.42;;;32.00;81.60;;;;;;4939420;28;20050;-90
2022/07/19 10:48:18;;;;;;;6.25;1.38;;;32.10;79.20;;;;;;4938367;28;20478;-89
2022/07/19 10:51:14;;;;;;;10.68;1.50;;;32.10;78.90;;;;;;4938386;28;20054;-92
2022/07/19 11:00:43;;;;;;;4.60;1.42;;;32.30;74.20;;;;;;4996512;28;20382;-93
2022/07/19 11:03:35;;;;;;;6.10;1.67;;;32.30;74.80;;;;;;4993369;28;20057;-92
2022/07/19 11:06:03;;;;;;;4.57;1.27;;;32.30;72.40;;;;;;4994467;28;20057;-91
2022/07/19 11:08:48;;;;;;;2.42;0.80;;;32.40;71.90;;;;;;4996079;28;20037;-90
2022/07/19 11:11:23;;;;;;;5.32;1.10;;;32.40;71.50;;;;;;5012729;28;20056;-92
2022/07/19 11:17:02;;;;;;;8.07;1.40;;;32.60;71.70;;;;;;4956951;28;20060;-91
2022/07/19 11:20:01;;;;;;;8.70;1.70;;;32.60;70.70;;;;;;4992885;28;20049;-91
2022/07/19 11:22:43;;;;;;;4.72;1.20;;;32.80;70.20;;;;;;4991885;28;20085;-90
2022/07/19 11:25:31;;;;;;;5.72;1.52;;;32.80;69.30;;;;;;4976807;28;20125;-90
2022/07/19 11:28:41;;;;;;;3.55;1.17;;;32.90;70.30;;;;;;5009315;28;20048;-92
2022/07/19 11:31:33;;;;;;;11.93;1.80;;;33.00;70.80;;;;;;4976930;28;20057;-92
2022/07/19 11:34:11;;;;;;;;;;;33.10;70.10;;;;;;5010176;28;20042;-91
2022/07/19 11:36:39;;;;;;;8.80;1.88;;;33.10;69.90;;;;;;4975802;28;19945;-90
2022/07/19 11:39:23;;;;;;;4.53;1.50;;;33.10;69.70;;;;;;4993038;28;20045;-90
2022/07/19 11:41:58;;;;;;;5.13;1.45;;;33.20;68.00;;;;;;4976204;28;20405;-91
2022/07/19 11:44:52;;;;;;;7.13;1.40;;;33.30;68.80;;;;;;4991897;28;20057;-92
2022/07/19 11:47:35;;;;;;;5.05;1.50;;;33.40;68.80;;;;;;4976514;28;20133;-92
2022/07/19 11:50:06;;;;;;;5.90;1.38;;;33.50;67.80;;;;;;4976866;28;20089;-92
2022/07/19 11:53:01;;;;;;;4.47;1.35;;;33.40;67.60;;;;;;4992159;28;20095;-91
2022/07/19 11:55:40;;;;;;;3.97;1.30;;;33.20;66.00;;;;;;4992451;28;20050;-90
2022/07/19 11:58:18;;;;;;;6.13;1.27;;;33.50;67.10;;;;;;4975886;28;20274;-92
2022/07/19 12:00:45;;;;;;;7.47;1.65;;;33.50;66.80;;;;;;4976013;28;20460;-92
2022/07/19 12:03:40;;;;;;;3.50;1.20;;;33.60;66.00;;;;;;4976242;28;20379;-92
2022/07/19 12:06:36;;;;;;;6.13;1.67;;;33.60;67.00;;;;;;4990507;28;20045;-92
2022/07/19 12:09:13;;;;;;;4.35;1.33;;;33.60;65.40;;;;;;4976911;28;20145;-91
2022/07/19 12:12:14;;;;;;;5.30;1.48;;;33.60;65.50;;;;;;4975870;28;20132;-91
2022/07/19 12:14:44;;;;;;;4.53;1.10;;;33.70;65.70;;;;;;4982450;28;20171;-91
2022/07/19 12:17:31;;;;;;;5.53;1.02;;;33.70;65.10;;;;;;4976257;28;20084;-91
2022/07/19 12:20:09;;;;;;;5.45;1.00;;;33.80;64.40;;;;;;4975712;28;20461;-92
2022/07/19 12:22:36;;;;;;;5.88;1.33;;;33.80;64.00;;;;;;4976156;28;20117;-93
2022/07/19 12:25:05;;;;;;;9.30;1.25;;;33.90;64.00;;;;;;4973521;28;20050;-91
2022/07/19 12:27:35;;;;;;;6.70;1.10;;;33.80;62.90;;;;;;4976353;28;20375;-92
2022/07/19 12:30:31;;;;;;;7.18;1.60;;;33.90;63.30;;;;;;4976291;28;20046;-91
2022/07/19 12:33:40;;;;;;;;;;;;;;;;;;;;;
2022/07/19 12:39:26;;;;;;;8.38;1.48;;;34.00;65.40;;;;;;4991446;28;20050;-92
2022/07/19 12:41:59;;;;;;;5.73;1.40;;;34.10;63.50;;;;;;4976259;28;20107;-91
2022/07/19 12:44:49;;;;;;;2.50;1.13;;;34.10;62.80;;;;;;4975866;28;20863;-91
2022/07/19 12:55:58;;;;;;;8.40;1.77;;;34.20;65.00;;;;;;4944295;28;20065;-92
2022/07/19 13:31:38;;;;;;;3.67;1.33;;;34.00;61.70;;;;;;4939317;28;20046;-91
2022/07/19 13:34:50;;;;;;;4.80;1.23;;;33.90;61.50;;;;;;4959463;28;20056;-94
2022/07/19 13:37:22;;;;;;;6.35;1.15;;;33.70;60.10;;;;;;4999785;28;20045;-92
2022/07/19 13:39:58;;;;;;;10.50;1.40;;;33.90;61.20;;;;;;5000506;28;20132;-94
2022/07/19 13:43:08;;;;;;;;;;;;;;;;;;;;;
2022/07/19 13:45:53;;;;;;;;;;;;;;;;;;;;;
2022/07/19 13:48:59;;;;;;;6.70;1.58;;;33.80;60.00;;;;;;5016580;28;20057;-94
2022/07/19 13:51:42;;;;;;;10.13;1.38;;;33.90;60.00;;;;;;4999006;28;20408;-93
2022/07/19 13:54:30;;;;;;;10.15;2.15;;;33.80;60.50;;;;;;5008191;28;20052;-92
2022/07/19 13:57:00;;;;;;;8.25;1.27;;;33.80;59.70;;;;;;5050458;23;20128;-92
2022/07/19 13:59:38;;;;;;;9.48;1.40;;;33.90;60.60;;;;;;4979935;28;20109;-93
2022/07/19 14:02:11;;;;;;;9.15;1.30;;;34.00;59.50;;;;;;4980298;28;20044;-93
2022/07/19 14:04:40;;;;;;;6.60;1.30;;;34.00;58.50;;;;;;4994541;28;20041;-94